CheckWX is a tool to help pilots better visualize weather data.  It is not intended as a substitute for an official pre-flight weather briefing.

07:34:56 UTC

KPGV METAR
Pitt-Greenville Airport
Greenville, North Carolina, USA
Current

20 mins ago

KPGV 230715Z AUTO 00000KT 10SM CLR 18/16 A3011 RMK AO2
Observed
Sep-23 @ 07:15 UTC
Visibility
10 SM
Flight Rules
VFR
Cloud Levels
  • Clear skies
Temperature
18°C / 64°F
Dewpoint
16°C / 61°F
Humidity
88%
Altimeter
30.11" Hg
Pressure
1019.62 hPa
Previous

40 mins ago

KPGV 230655Z AUTO 00000KT 10SM CLR 18/16 A3011 RMK AO2
Observed
Sep-23 @ 06:55 UTC
Visibility
10 SM
Flight Rules
VFR
Cloud Levels
  • Clear skies
Temperature
18°C / 64°F
Dewpoint
16°C / 61°F
Humidity
88%
Altimeter
30.11" Hg
Pressure
1019.62 hPa
Previous

60 mins ago

KPGV 230635Z AUTO 00000KT 10SM CLR 19/16 A3012 RMK AO2
Observed
Sep-23 @ 06:35 UTC
Visibility
10 SM
Flight Rules
VFR
Cloud Levels
  • Clear skies
Temperature
19°C / 66°F
Dewpoint
16°C / 61°F
Humidity
83%
Altimeter
30.12" Hg
Pressure
1020.02 hPa